Weather reports worldwide

Advertisment
S. Valentino Alla Muta, Italy (16008): temperature & dewpoint: 17.04.2019 19:00:00 - 23.04.2019 19:00:00 (CEST)S. Valentino Alla Muta, Italy (16008): wind speed: 17.04.2019 19:00:00 - 23.04.2019 19:00:00 (CEST)S. Valentino Alla Muta, Italy (16008): wind direction: 17.04.2019 19:00:00 - 23.04.2019 19:00:00 (CEST)S. Valentino Alla Muta, Italy (16008): visibility: 17.04.2019 19:00:00 - 23.04.2019 19:00:00 (CEST)
Date & Time tt [°C] td [°C] ff [km/h] ff [kn] dd vv [km]
23.04.2019 19:00:00 - - - - - -
23.04.2019 18:00:00 8,0 5,5 16 9 S 15
23.04.2019 17:00:00 8,2 4,8 16 9 S 15
23.04.2019 16:00:00 8,2 4,4 21 11 SSW 15
23.04.2019 15:00:00 8,2 4,6 21 11 SSW 15
23.04.2019 14:00:00 8,2 4,4 22 12 S 15
23.04.2019 13:00:00 7,8 4,6 22 12 S 15
23.04.2019 12:00:00 6,4 3,4 21 11 S 12
23.04.2019 11:00:00 6,2 3,5 16 9 SSE 12
23.04.2019 10:00:00 6,2 2,5 16 9 SSE 12
23.04.2019 09:00:00 6,2 2,5 16 9 SSE 10
23.04.2019 08:00:00 6,0 2,3 15 8 SSE 10
23.04.2019 07:00:00 5,8 2,1 18 10 SE 10
23.04.2019 06:00:00 5,6 2,1 16 9 SSE 10
23.04.2019 05:00:00 6,0 1,1 16 9 S 10
23.04.2019 04:00:00 6,0 1,5 15 8 SSE 10
23.04.2019 03:00:00 6,0 2,6 16 9 SSE 10
23.04.2019 02:00:00 6,6 2,9 16 9 SSE 10
23.04.2019 01:00:00 7,0 2,7 18 10 S 12
23.04.2019 00:00:00 7,8 2,3 13 7 SSE 15
22.04.2019 23:00:00 8,6 -0,2 15 8 SSE 15
22.04.2019 22:00:00 9,4 -1,3 9 5 S 15
22.04.2019 21:00:00 10,6 -3,5 9 5 SSE 15
22.04.2019 20:00:00 12,0 -3,4 11 6 S 15
22.04.2019 19:00:00 12,6 -2,0 16 9 SSW 15
22.04.2019 18:00:00 13,0 -1,4 18 10 S 15
22.04.2019 17:00:00 13,4 -0,6 18 10 SSW 15
22.04.2019 16:00:00 13,0 -0,3 16 9 S 15
22.04.2019 15:00:00 12,6 -0,3 15 8 SSW 15
22.04.2019 14:00:00 12,0 1,6 16 9 SSW 15
22.04.2019 13:00:00 12,8 1,5 18 10 S 15
22.04.2019 12:00:00 10,4 2,0 16 9 S 15
22.04.2019 11:00:00 10,0 2,6 18 10 SSE 18
22.04.2019 10:00:00 7,0 2,5 16 9 SSE 15
22.04.2019 09:00:00 4,8 2,0 8 4 S 20
22.04.2019 08:00:00 4,0 1,7 4 2 SSE 20
22.04.2019 07:00:00 4,0 1,4 2 1 NNW 20
22.04.2019 06:00:00 4,0 1,4 2 1 NE 20
22.04.2019 05:00:00 4,0 0,5 4 2 NE 20
22.04.2019 04:00:00 4,2 0,5 0 0 N 20
22.04.2019 03:00:00 5,0 0,4 2 1 SW 20
22.04.2019 02:00:00 5,2 -0,2 2 1 SSW 20
22.04.2019 01:00:00 6,0 -0,3 2 1 NNE 20
22.04.2019 00:00:00 6,6 -0,6 2 1 N 20
21.04.2019 23:00:00 7,2 -1,2 2 1 NNE 20
21.04.2019 22:00:00 8,6 -1,5 4 2 NE 20
21.04.2019 21:00:00 11,0 -2,4 2 1 ENE 20
21.04.2019 20:00:00 12,2 -3,6 2 1 SSE 20
21.04.2019 19:00:00 13,0 -5,5 4 2 SE 20
21.04.2019 18:00:00 14,2 -6,6 8 4 SW 20
21.04.2019 17:00:00 14,4 -9,6 13 7 SSW 20
21.04.2019 16:00:00 14,8 -10,0 11 6 SSW 20
21.04.2019 15:00:00 14,6 -10,2 13 7 SSW 20
21.04.2019 14:00:00 14,0 -10,7 15 8 S 20
21.04.2019 13:00:00 13,8 -8,8 15 8 SSW 20
21.04.2019 12:00:00 12,0 -1,9 13 7 S 20
21.04.2019 11:00:00 9,0 -0,3 2 1 W 20
21.04.2019 10:00:00 6,4 -0,1 4 2 NNW 20
21.04.2019 09:00:00 4,6 0,2 4 2 NE 20
21.04.2019 08:00:00 3,8 -1,0 8 4 NNE 15
21.04.2019 07:00:00 3,6 -1,7 4 2 N 15
21.04.2019 06:00:00 4,0 -1,6 8 4 NNE 15
21.04.2019 05:00:00 4,8 -1,2 4 2 NNE 12
21.04.2019 04:00:00 4,8 -1,9 0 0 N 12
21.04.2019 03:00:00 4,8 -2,5 8 4 NNE 15
21.04.2019 02:00:00 5,2 -2,6 8 4 NNE 20
21.04.2019 01:00:00 5,8 -3,0 8 4 NNE 20
21.04.2019 00:00:00 6,2 -3,4 9 5 NNE 20
20.04.2019 23:00:00 6,8 -3,7 8 4 NNE 20
20.04.2019 22:00:00 7,4 -4,4 8 4 NE 20
20.04.2019 21:00:00 9,4 -4,5 5 3 NNE 20
20.04.2019 20:00:00 12,4 -6,6 8 4 NNE 20
20.04.2019 19:00:00 13,4 -10,4 5 3 E 20
20.04.2019 18:00:00 13,8 -10,1 9 5 SW 20
20.04.2019 17:00:00 14,0 -10,0 16 9 SSW 20
20.04.2019 16:00:00 13,0 -9,4 15 8 SSW 20
20.04.2019 15:00:00 12,8 -7,3 15 8 SSW 20
20.04.2019 14:00:00 12,4 -3,4 16 9 S 20
20.04.2019 13:00:00 12,0 -3,0 16 9 SSW 18
20.04.2019 12:00:00 11,0 -2,1 16 9 S 18
20.04.2019 11:00:00 7,8 -0,9 13 7 S 18
20.04.2019 10:00:00 7,0 -0,2 8 4 NNW 18
20.04.2019 09:00:00 3,0 -0,5 4 2 SSW 15
20.04.2019 08:00:00 0,8 -2,4 8 4 N 10
20.04.2019 07:00:00 1,0 -2,2 9 5 N 10
20.04.2019 06:00:00 1,0 -2,4 9 5 N 10
20.04.2019 05:00:00 1,0 -2,4 9 5 N 10
20.04.2019 04:00:00 - - - - - -
20.04.2019 03:00:00 2,2 -3,1 0 0 N 10
20.04.2019 02:00:00 2,2 -3,3 0 0 N 20
20.04.2019 01:00:00 3,6 -3,4 5 3 NNE 10
20.04.2019 00:00:00 3,8 -3,2 5 3 NNE 10
19.04.2019 23:00:00 4,8 -3,0 5 3 NNE 10
19.04.2019 22:00:00 5,4 -3,2 8 4 NE 20
19.04.2019 21:00:00 7,2 -4,5 4 2 NE 20
19.04.2019 20:00:00 9,2 -6,2 5 3 WSW 20
19.04.2019 19:00:00 10,2 -5,7 5 3 W 20
19.04.2019 18:00:00 11,8 -7,1 9 5 SSW 20
19.04.2019 17:00:00 11,0 -8,8 9 5 SSW 20
19.04.2019 16:00:00 11,8 -8,7 13 7 SSW 10
19.04.2019 15:00:00 12,0 -10,3 11 6 SSW 20
19.04.2019 14:00:00 11,8 -4,8 9 5 SSW 20
19.04.2019 13:00:00 11,2 -1,6 9 5 SSW 20
19.04.2019 12:00:00 9,4 -1,1 11 6 SSW 10
19.04.2019 11:00:00 8,6 -1,2 9 5 SSW 10
19.04.2019 10:00:00 6,0 3,2 9 5 SSW 20
19.04.2019 09:00:00 4,8 2,5 9 5 S 10
19.04.2019 08:00:00 4,0 2,2 5 3 SSW 20
19.04.2019 07:00:00 4,2 2,6 5 3 SW 10
19.04.2019 06:00:00 4,2 2,6 5 3 SW 10
19.04.2019 05:00:00 4,2 2,6 8 4 S 10
19.04.2019 04:00:00 - - - - - -
19.04.2019 03:00:00 - - - - - -
19.04.2019 02:00:00 4,8 2,3 5 3 SSE 10
19.04.2019 01:00:00 - - - - - -
19.04.2019 00:00:00 4,8 1,8 5 3 SSE 15
18.04.2019 23:00:00 4,8 1,7 13 7 SE 18
18.04.2019 22:00:00 5,4 1,7 9 5 SSE 18
18.04.2019 21:00:00 - - - - - -
18.04.2019 20:00:00 9,0 -1,7 11 6 S 30
18.04.2019 19:00:00 9,0 -2,0 11 6 S 30
18.04.2019 18:00:00 9,8 -1,9 15 8 SSW 30
18.04.2019 17:00:00 9,8 0,7 13 7 SSW 30
18.04.2019 16:00:00 10,0 0,1 13 7 S 30
18.04.2019 15:00:00 9,0 -0,6 15 8 SSW 30
18.04.2019 14:00:00 9,2 -1,0 16 9 SSW 30
18.04.2019 13:00:00 10,4 -1,0 13 7 SSW 30
18.04.2019 12:00:00 10,4 -0,4 9 5 SSW 30
18.04.2019 11:00:00 8,6 1,1 15 8 S 30
18.04.2019 10:00:00 7,2 2,1 9 5 SSW 20
18.04.2019 09:00:00 4,0 2,2 0 0 N 10
18.04.2019 08:00:00 1,0 -0,8 0 0 N 10
18.04.2019 07:00:00 - - - - - -
18.04.2019 06:00:00 - - - - - -
18.04.2019 05:00:00 1,6 -1,3 0 0 N 10
18.04.2019 04:00:00 2,0 -1,6 0 0 N 10
18.04.2019 03:00:00 2,4 -1,6 0 0 N 10
18.04.2019 02:00:00 2,8 -1,7 0 0 N 10
18.04.2019 01:00:00 4,0 -1,4 0 0 N 10
18.04.2019 00:00:00 4,8 -1,2 0 0 N 20
17.04.2019 23:00:00 5,4 -2,4 0 0 N 20
17.04.2019 22:00:00 6,2 -3,4 5 3 NNE 20
17.04.2019 21:00:00 9,2 -3,1 5 3 S 20
17.04.2019 20:00:00 9,0 -4,6 0 0 N 20
17.04.2019 19:00:00 10,0 -7,7 8 4 S 20

tt = temperature
td = dewpoint
ff = wind speed
dd = wind direction
vv = visibility

Next stations